Terminal Aerodrome Forecast
Issued by NWS

Home | Current Version | Previous Version | Text Only | Print | Product List | Glossary On
Versions: 1 2 3 4 5 6 7 8 9 10 11 12 13 14 15 16 17 18
000
FTUS45 KSLC 281403 AAA
TAFENV
TAF AMD
KENV 281403Z 2814/2912 33010G22KT P6SM SCT060 BKN110
     FM281500 34018G28KT P6SM VCSH SCT030 BKN060
     FM290200 33011G18KT P6SM SCT050 BKN090
      AMD LTD TO CLD VIS AND WIND=

USA.gov is the U.S. government's official web portal to all federal, state and local government web resources and services.